sensor_id;sensor_type;location;lat;lon;timestamp;temperature;humidity
52397;DHT22;38322;53.108;6.308;2022-07-15T05:01:28;12.60;99.90
52397;DHT22;38322;53.108;6.308;2022-07-15T05:03:54;12.70;99.90
52397;DHT22;38322;53.108;6.308;2022-07-15T05:06:20;12.70;99.90
52397;DHT22;38322;53.108;6.308;2022-07-15T05:08:45;12.80;99.90
52397;DHT22;38322;53.108;6.308;2022-07-15T05:11:11;12.90;99.90
52397;DHT22;38322;53.108;6.308;2022-07-15T05:13:37;13.00;99.90
52397;DHT22;38322;53.108;6.308;2022-07-15T05:16:03;13.00;99.90
52397;DHT22;38322;53.108;6.308;2022-07-15T05:18:29;13.10;99.90
52397;DHT22;38322;53.108;6.308;2022-07-15T05:20:55;13.20;99.90
52397;DHT22;38322;53.108;6.308;2022-07-15T05:23:20;13.30;99.90
52397;DHT22;38322;53.108;6.308;2022-07-15T05:25:46;13.40;99.90
52397;DHT22;38322;53.108;6.308;2022-07-15T05:28:12;13.60;99.90
52397;DHT22;38322;53.108;6.308;2022-07-15T05:30:38;13.60;99.90
52397;DHT22;38322;53.108;6.308;2022-07-15T05:33:04;13.80;99.90
52397;DHT22;38322;53.108;6.308;2022-07-15T05:35:30;13.80;99.90
52397;DHT22;38322;53.108;6.308;2022-07-15T05:37:56;13.90;99.90
52397;DHT22;38322;53.108;6.308;2022-07-15T05:40:21;14.00;99.90
52397;DHT22;38322;53.108;6.308;2022-07-15T05:42:47;14.10;99.90
52397;DHT22;38322;53.108;6.308;2022-07-15T05:45:13;14.10;99.90
52397;DHT22;38322;53.108;6.308;2022-07-15T05:47:39;14.20;99.90
52397;DHT22;38322;53.108;6.308;2022-07-15T05:50:05;14.20;99.90
52397;DHT22;38322;53.108;6.308;2022-07-15T05:52:32;14.20;99.90
52397;DHT22;38322;53.108;6.308;2022-07-15T05:54:58;14.30;99.90
52397;DHT22;38322;53.108;6.308;2022-07-15T05:57:24;14.30;99.90
52397;DHT22;38322;53.108;6.308;2022-07-15T05:59:49;14.30;99.90
52397;DHT22;38322;53.108;6.308;2022-07-15T06:02:15;14.30;99.90
52397;DHT22;38322;53.108;6.308;2022-07-15T06:04:41;14.30;99.90
52397;DHT22;38322;53.108;6.308;2022-07-15T06:07:07;14.40;99.90
52397;DHT22;38322;53.108;6.308;2022-07-15T06:09:33;14.40;99.90
52397;DHT22;38322;53.108;6.308;2022-07-15T06:11:58;14.50;99.90
52397;DHT22;38322;53.108;6.308;2022-07-15T06:14:24;14.50;99.90
52397;DHT22;38322;53.108;6.308;2022-07-15T06:16:50;14.60;99.90
52397;DHT22;38322;53.108;6.308;2022-07-15T06:19:15;14.60;99.90
52397;DHT22;38322;53.108;6.308;2022-07-15T06:21:41;14.60;99.90
52397;DHT22;38322;53.108;6.308;2022-07-15T06:24:07;14.60;99.90
52397;DHT22;38322;53.108;6.308;2022-07-15T06:26:33;14.60;99.90
52397;DHT22;38322;53.108;6.308;2022-07-15T06:28:58;14.60;99.90
52397;DHT22;38322;53.108;6.308;2022-07-15T06:31:24;14.60;99.90
52397;DHT22;38322;53.108;6.308;2022-07-15T06:33:50;14.70;99.90
52397;DHT22;38322;53.108;6.308;2022-07-15T06:36:16;14.70;99.90
52397;DHT22;38322;53.108;6.308;2022-07-15T06:38:41;14.70;99.90
52397;DHT22;38322;53.108;6.308;2022-07-15T06:41:07;14.70;99.90
52397;DHT22;38322;53.108;6.308;2022-07-15T06:43:33;14.70;99.90
52397;DHT22;38322;53.108;6.308;2022-07-15T06:45:58;14.80;99.90
52397;DHT22;38322;53.108;6.308;2022-07-15T06:48:24;14.90;99.90
52397;DHT22;38322;53.108;6.308;2022-07-15T06:50:50;15.00;99.90
52397;DHT22;38322;53.108;6.308;2022-07-15T06:53:16;15.10;99.90
52397;DHT22;38322;53.108;6.308;2022-07-15T06:55:41;15.30;99.90
52397;DHT22;38322;53.108;6.308;2022-07-15T06:58:07;15.40;99.90
52397;DHT22;38322;53.108;6.308;2022-07-15T07:00:33;15.60;99.90
52397;DHT22;38322;53.108;6.308;2022-07-15T07:02:58;15.70;99.90
52397;DHT22;38322;53.108;6.308;2022-07-15T07:05:24;15.90;99.90
52397;DHT22;38322;53.108;6.308;2022-07-15T07:07:51;15.90;99.90
52397;DHT22;38322;53.108;6.308;2022-07-15T07:10:16;16.00;99.90
52397;DHT22;38322;53.108;6.308;2022-07-15T07:12:42;16.10;99.90
52397;DHT22;38322;53.108;6.308;2022-07-15T07:15:08;16.20;99.90
52397;DHT22;38322;53.108;6.308;2022-07-15T07:17:35;16.40;99.90
52397;DHT22;38322;53.108;6.308;2022-07-15T07:20:00;16.40;99.90
52397;DHT22;38322;53.108;6.308;2022-07-15T07:22:26;16.60;99.90
52397;DHT22;38322;53.108;6.308;2022-07-15T07:24:52;16.50;99.90
52397;DHT22;38322;53.108;6.308;2022-07-15T07:27:19;16.50;99.90
52397;DHT22;38322;53.108;6.308;2022-07-15T07:29:44;16.40;99.90
52397;DHT22;38322;53.108;6.308;2022-07-15T07:32:10;16.20;99.90
52397;DHT22;38322;53.108;6.308;2022-07-15T07:34:36;16.10;99.90
52397;DHT22;38322;53.108;6.308;2022-07-15T07:37:02;16.00;99.90
52397;DHT22;38322;53.108;6.308;2022-07-15T07:39:27;15.90;99.90
52397;DHT22;38322;53.108;6.308;2022-07-15T07:41:53;15.90;99.90
52397;DHT22;38322;53.108;6.308;2022-07-15T07:44:20;16.00;99.90
52397;DHT22;38322;53.108;6.308;2022-07-15T07:46:46;16.20;99.90
52397;DHT22;38322;53.108;6.308;2022-07-15T07:49:13;16.40;99.90
52397;DHT22;38322;53.108;6.308;2022-07-15T07:51:40;16.50;99.90
52397;DHT22;38322;53.108;6.308;2022-07-15T07:54:07;16.60;99.90
52397;DHT22;38322;53.108;6.308;2022-07-15T07:56:32;16.80;99.90
52397;DHT22;38322;53.108;6.308;2022-07-15T07:58:58;17.00;99.90
52397;DHT22;38322;53.108;6.308;2022-07-15T08:01:24;17.30;99.90
52397;DHT22;38322;53.108;6.308;2022-07-15T08:03:50;17.20;99.90
52397;DHT22;38322;53.108;6.308;2022-07-15T08:06:17;17.00;99.90
52397;DHT22;38322;53.108;6.308;2022-07-15T08:08:44;16.90;99.90
52397;DHT22;38322;53.108;6.308;2022-07-15T08:11:10;16.90;99.90
52397;DHT22;38322;53.108;6.308;2022-07-15T08:13:36;16.80;99.90
52397;DHT22;38322;53.108;6.308;2022-07-15T08:16:03;16.90;99.90
52397;DHT22;38322;53.108;6.308;2022-07-15T08:18:29;16.90;99.90
52397;DHT22;38322;53.108;6.308;2022-07-15T08:20:55;16.90;99.90
52397;DHT22;38322;53.108;6.308;2022-07-15T08:23:21;17.00;99.90
52397;DHT22;38322;53.108;6.308;2022-07-15T08:25:48;17.10;99.90
52397;DHT22;38322;53.108;6.308;2022-07-15T08:28:15;17.20;99.90
52397;DHT22;38322;53.108;6.308;2022-07-15T08:30:41;17.40;99.90
52397;DHT22;38322;53.108;6.308;2022-07-15T08:33:07;17.60;99.90
52397;DHT22;38322;53.108;6.308;2022-07-15T08:35:32;17.90;99.90
52397;DHT22;38322;53.108;6.308;2022-07-15T08:38:03;17.90;99.90
52397;DHT22;38322;53.108;6.308;2022-07-15T08:40:31;18.10;99.90
52397;DHT22;38322;53.108;6.308;2022-07-15T08:42:57;17.90;99.90
52397;DHT22;38322;53.108;6.308;2022-07-15T08:45:23;17.90;99.90
52397;DHT22;38322;53.108;6.308;2022-07-15T08:47:51;17.90;99.90
52397;DHT22;38322;53.108;6.308;2022-07-15T08:50:17;17.80;99.90
52397;DHT22;38322;53.108;6.308;2022-07-15T08:52:46;17.60;99.90
52397;DHT22;38322;53.108;6.308;2022-07-15T08:55:13;17.60;99.90
52397;DHT22;38322;53.108;6.308;2022-07-15T08:57:45;17.50;99.90
52397;DHT22;38322;53.108;6.308;2022-07-15T09:00:12;17.40;99.90
52397;DHT22;38322;53.108;6.308;2022-07-15T09:02:39;17.40;99.90
52397;DHT22;38322;53.108;6.308;2022-07-15T09:07:56;17.40;99.90
52397;DHT22;38322;53.108;6.308;2022-07-15T09:10:25;17.40;99.90
52397;DHT22;38322;53.108;6.308;2022-07-15T09:12:52;17.40;99.90
52397;DHT22;38322;53.108;6.308;2022-07-15T09:15:33;17.30;99.90
52397;DHT22;38322;53.108;6.308;2022-07-15T09:18:11;17.20;99.90
52397;DHT22;38322;53.108;6.308;2022-07-15T09:20:37;17.20;99.90
52397;DHT22;38322;53.108;6.308;2022-07-15T09:23:04;17.20;99.90
52397;DHT22;38322;53.108;6.308;2022-07-15T09:25:30;17.20;99.90
52397;DHT22;38322;53.108;6.308;2022-07-15T09:28:05;17.30;99.90
52397;DHT22;38322;53.108;6.308;2022-07-15T09:30:34;17.30;99.90
52397;DHT22;38322;53.108;6.308;2022-07-15T09:33:29;17.20;99.90
52397;DHT22;38322;53.108;6.308;2022-07-15T09:36:11;17.20;99.90
52397;DHT22;38322;53.108;6.308;2022-07-15T09:38:41;17.20;99.90
52397;DHT22;38322;53.108;6.308;2022-07-15T09:41:11;17.20;99.90
52397;DHT22;38322;53.108;6.308;2022-07-15T09:43:46;17.10;99.90
52397;DHT22;38322;53.108;6.308;2022-07-15T09:46:12;17.10;99.90
52397;DHT22;38322;53.108;6.308;2022-07-15T09:48:45;17.10;99.90
52397;DHT22;38322;53.108;6.308;2022-07-15T09:51:11;17.10;99.90
52397;DHT22;38322;53.108;6.308;2022-07-15T09:53:38;17.10;99.90
52397;DHT22;38322;53.108;6.308;2022-07-15T09:56:08;17.20;99.90
52397;DHT22;38322;53.108;6.308;2022-07-15T09:58:38;17.30;99.90
52397;DHT22;38322;53.108;6.308;2022-07-15T10:01:06;17.70;99.90
52397;DHT22;38322;53.108;6.308;2022-07-15T10:03:33;18.00;99.90
52397;DHT22;38322;53.108;6.308;2022-07-15T10:06:00;18.10;99.90
52397;DHT22;38322;53.108;6.308;2022-07-15T10:08:28;17.90;99.90
52397;DHT22;38322;53.108;6.308;2022-07-15T10:10:56;17.80;99.90
52397;DHT22;38322;53.108;6.308;2022-07-15T10:13:50;17.80;99.90
52397;DHT22;38322;53.108;6.308;2022-07-15T10:16:38;17.70;99.90
52397;DHT22;38322;53.108;6.308;2022-07-15T10:19:15;17.80;99.90
52397;DHT22;38322;53.108;6.308;2022-07-15T10:21:52;17.90;99.90
52397;DHT22;38322;53.108;6.308;2022-07-15T10:29:40;18.40;99.90
52397;DHT22;38322;53.108;6.308;2022-07-15T10:32:06;18.50;99.90
52397;DHT22;38322;53.108;6.308;2022-07-15T10:34:33;18.50;99.90
52397;DHT22;38322;53.108;6.308;2022-07-15T10:37:02;18.50;99.90
52397;DHT22;38322;53.108;6.308;2022-07-15T10:39:49;18.50;99.90
52397;DHT22;38322;53.108;6.308;2022-07-15T10:42:15;18.30;99.90
52397;DHT22;38322;53.108;6.308;2022-07-15T10:47:27;18.30;99.90
52397;DHT22;38322;53.108;6.308;2022-07-15T10:49:53;18.40;99.90
52397;DHT22;38322;53.108;6.308;2022-07-15T10:52:23;18.50;99.90
52397;DHT22;38322;53.108;6.308;2022-07-15T11:00:25;18.60;99.90
52397;DHT22;38322;53.108;6.308;2022-07-15T11:05:28;18.70;99.90
52397;DHT22;38322;53.108;6.308;2022-07-15T11:07:55;18.60;99.90
52397;DHT22;38322;53.108;6.308;2022-07-15T11:10:21;18.70;99.90
52397;DHT22;38322;53.108;6.308;2022-07-15T11:15:16;18.70;99.90
52397;DHT22;38322;53.108;6.308;2022-07-15T11:17:45;18.70;99.90
52397;DHT22;38322;53.108;6.308;2022-07-15T11:20:14;18.60;99.90
52397;DHT22;38322;53.108;6.308;2022-07-15T11:22:43;18.60;99.90
52397;DHT22;38322;53.108;6.308;2022-07-15T11:25:25;18.60;99.90
52397;DHT22;38322;53.108;6.308;2022-07-15T11:28:05;18.70;99.90
52397;DHT22;38322;53.108;6.308;2022-07-15T11:30:34;18.70;99.90
52397;DHT22;38322;53.108;6.308;2022-07-15T11:33:02;18.70;99.90
52397;DHT22;38322;53.108;6.308;2022-07-15T11:35:29;18.70;99.90
52397;DHT22;38322;53.108;6.308;2022-07-15T11:37:59;18.90;99.90
52397;DHT22;38322;53.108;6.308;2022-07-15T11:40:25;19.00;99.90
52397;DHT22;38322;53.108;6.308;2022-07-15T11:43:13;19.00;99.90
52397;DHT22;38322;53.108;6.308;2022-07-15T11:45:58;19.10;99.90
52397;DHT22;38322;53.108;6.308;2022-07-15T11:48:24;19.00;99.90
52397;DHT22;38322;53.108;6.308;2022-07-15T11:50:51;19.00;99.90
52397;DHT22;38322;53.108;6.308;2022-07-15T11:53:18;18.80;99.90
52397;DHT22;38322;53.108;6.308;2022-07-15T11:55:53;18.90;99.90
52397;DHT22;38322;53.108;6.308;2022-07-15T11:58:31;18.80;99.90
52397;DHT22;38322;53.108;6.308;2022-07-15T12:00:59;18.70;99.90
52397;DHT22;38322;53.108;6.308;2022-07-15T12:03:31;18.80;99.90
52397;DHT22;38322;53.108;6.308;2022-07-15T12:05:59;18.80;99.90
52397;DHT22;38322;53.108;6.308;2022-07-15T12:08:35;19.00;99.90
52397;DHT22;38322;53.108;6.308;2022-07-15T12:11:01;19.10;99.90
52397;DHT22;38322;53.108;6.308;2022-07-15T12:13:29;19.10;99.90
52397;DHT22;38322;53.108;6.308;2022-07-15T12:16:05;19.10;99.90
52397;DHT22;38322;53.108;6.308;2022-07-15T12:18:31;19.30;99.90
52397;DHT22;38322;53.108;6.308;2022-07-15T12:20:57;19.40;99.90
52397;DHT22;38322;53.108;6.308;2022-07-15T12:23:22;19.40;99.90
52397;DHT22;38322;53.108;6.308;2022-07-15T12:26:02;19.30;99.90
52397;DHT22;38322;53.108;6.308;2022-07-15T12:28:30;19.20;99.90
52397;DHT22;38322;53.108;6.308;2022-07-15T12:30:56;19.10;99.90
52397;DHT22;38322;53.108;6.308;2022-07-15T12:33:22;19.10;99.90
52397;DHT22;38322;53.108;6.308;2022-07-15T12:35:49;18.80;99.90
52397;DHT22;38322;53.108;6.308;2022-07-15T12:38:29;18.80;99.90
52397;DHT22;38322;53.108;6.308;2022-07-15T12:41:05;18.80;99.90
52397;DHT22;38322;53.108;6.308;2022-07-15T12:43:51;18.90;99.90
52397;DHT22;38322;53.108;6.308;2022-07-15T12:46:17;19.00;99.90
52397;DHT22;38322;53.108;6.308;2022-07-15T12:48:46;19.00;99.90
52397;DHT22;38322;53.108;6.308;2022-07-15T12:51:14;18.80;99.90
52397;DHT22;38322;53.108;6.308;2022-07-15T12:53:40;18.80;99.90
52397;DHT22;38322;53.108;6.308;2022-07-15T12:56:06;18.70;99.90
52397;DHT22;38322;53.108;6.308;2022-07-15T12:58:33;18.70;99.90
52397;DHT22;38322;53.108;6.308;2022-07-15T13:01:10;18.70;99.90
52397;DHT22;38322;53.108;6.308;2022-07-15T13:03:37;18.60;99.90
52397;DHT22;38322;53.108;6.308;2022-07-15T13:06:03;18.60;99.90
52397;DHT22;38322;53.108;6.308;2022-07-15T13:08:32;18.50;99.90
52397;DHT22;38322;53.108;6.308;2022-07-15T13:11:02;18.50;99.90
52397;DHT22;38322;53.108;6.308;2022-07-15T13:13:30;18.50;99.90
52397;DHT22;38322;53.108;6.308;2022-07-15T13:15:57;18.50;99.90
52397;DHT22;38322;53.108;6.308;2022-07-15T13:18:25;18.50;99.90
52397;DHT22;38322;53.108;6.308;2022-07-15T13:20:52;18.60;99.90
52397;DHT22;38322;53.108;6.308;2022-07-15T13:23:19;18.60;99.90
52397;DHT22;38322;53.108;6.308;2022-07-15T13:25:44;18.60;99.90
52397;DHT22;38322;53.108;6.308;2022-07-15T13:28:11;18.50;99.90
52397;DHT22;38322;53.108;6.308;2022-07-15T13:30:38;18.60;99.90
52397;DHT22;38322;53.108;6.308;2022-07-15T13:33:04;18.70;99.90
52397;DHT22;38322;53.108;6.308;2022-07-15T13:35:30;18.70;99.90
52397;DHT22;38322;53.108;6.308;2022-07-15T13:37:56;18.80;99.90
52397;DHT22;38322;53.108;6.308;2022-07-15T13:40:22;18.70;99.90
52397;DHT22;38322;53.108;6.308;2022-07-15T13:42:48;18.70;99.90
52397;DHT22;38322;53.108;6.308;2022-07-15T13:45:14;18.60;99.90
52397;DHT22;38322;53.108;6.308;2022-07-15T13:47:41;18.50;99.90
52397;DHT22;38322;53.108;6.308;2022-07-15T13:50:07;18.50;99.90
52397;DHT22;38322;53.108;6.308;2022-07-15T13:52:54;18.50;99.90
52397;DHT22;38322;53.108;6.308;2022-07-15T13:55:21;18.60;99.90
52397;DHT22;38322;53.108;6.308;2022-07-15T13:57:48;18.70;99.90
52397;DHT22;38322;53.108;6.308;2022-07-15T14:00:16;18.80;99.90
52397;DHT22;38322;53.108;6.308;2022-07-15T14:02:43;18.80;99.90
52397;DHT22;38322;53.108;6.308;2022-07-15T14:05:11;18.70;99.90
52397;DHT22;38322;53.108;6.308;2022-07-15T14:07:37;18.80;99.90
52397;DHT22;38322;53.108;6.308;2022-07-15T14:10:03;18.80;99.90
52397;DHT22;38322;53.108;6.308;2022-07-15T14:12:30;18.90;99.90
52397;DHT22;38322;53.108;6.308;2022-07-15T14:14:56;19.00;99.90
52397;DHT22;38322;53.108;6.308;2022-07-15T14:17:22;19.40;99.90
52397;DHT22;38322;53.108;6.308;2022-07-15T14:19:48;19.80;99.90
52397;DHT22;38322;53.108;6.308;2022-07-15T14:22:13;19.90;99.90
52397;DHT22;38322;53.108;6.308;2022-07-15T14:24:39;19.80;99.90
52397;DHT22;38322;53.108;6.308;2022-07-15T14:27:05;19.70;99.90
52397;DHT22;38322;53.108;6.308;2022-07-15T14:29:31;19.70;99.90
52397;DHT22;38322;53.108;6.308;2022-07-15T14:31:57;19.80;99.90
52397;DHT22;38322;53.108;6.308;2022-07-15T14:34:23;19.80;99.90
52397;DHT22;38322;53.108;6.308;2022-07-15T14:36:48;19.80;99.90
52397;DHT22;38322;53.108;6.308;2022-07-15T14:39:14;19.80;99.90
52397;DHT22;38322;53.108;6.308;2022-07-15T14:41:40;19.80;99.90
52397;DHT22;38322;53.108;6.308;2022-07-15T14:44:06;19.80;99.90
52397;DHT22;38322;53.108;6.308;2022-07-15T14:46:32;19.90;99.90
52397;DHT22;38322;53.108;6.308;2022-07-15T14:48:58;20.00;99.90
52397;DHT22;38322;53.108;6.308;2022-07-15T14:51:23;20.20;99.90
52397;DHT22;38322;53.108;6.308;2022-07-15T14:53:49;20.20;99.90
52397;DHT22;38322;53.108;6.308;2022-07-15T14:56:15;20.10;99.90
52397;DHT22;38322;53.108;6.308;2022-07-15T14:58:41;20.00;99.90
52397;DHT22;38322;53.108;6.308;2022-07-15T15:01:07;19.90;99.90
52397;DHT22;38322;53.108;6.308;2022-07-15T15:03:32;19.80;99.90
52397;DHT22;38322;53.108;6.308;2022-07-15T15:05:58;19.80;99.90
52397;DHT22;38322;53.108;6.308;2022-07-15T15:08:25;19.80;99.90
52397;DHT22;38322;53.108;6.308;2022-07-15T15:10:51;19.70;99.90
52397;DHT22;38322;53.108;6.308;2022-07-15T15:13:17;19.60;99.90
52397;DHT22;38322;53.108;6.308;2022-07-15T15:15:42;19.60;99.90
52397;DHT22;38322;53.108;6.308;2022-07-15T15:18:08;19.60;99.90
52397;DHT22;38322;53.108;6.308;2022-07-15T15:20:35;19.50;99.90
52397;DHT22;38322;53.108;6.308;2022-07-15T15:23:01;19.60;99.90
52397;DHT22;38322;53.108;6.308;2022-07-15T15:25:27;19.70;99.90
52397;DHT22;38322;53.108;6.308;2022-07-15T15:28:11;19.80;99.90
52397;DHT22;38322;53.108;6.308;2022-07-15T15:30:37;19.80;99.90
52397;DHT22;38322;53.108;6.308;2022-07-15T15:33:03;19.70;99.90
52397;DHT22;38322;53.108;6.308;2022-07-15T15:35:29;19.70;99.90
52397;DHT22;38322;53.108;6.308;2022-07-15T15:37:55;19.60;99.90
52397;DHT22;38322;53.108;6.308;2022-07-15T15:40:21;19.60;99.90
52397;DHT22;38322;53.108;6.308;2022-07-15T15:42:47;19.60;99.90
52397;DHT22;38322;53.108;6.308;2022-07-15T15:45:13;19.60;99.90
52397;DHT22;38322;53.108;6.308;2022-07-15T15:47:39;19.70;99.90
52397;DHT22;38322;53.108;6.308;2022-07-15T15:50:05;19.60;99.90
52397;DHT22;38322;53.108;6.308;2022-07-15T15:52:31;19.50;99.90
52397;DHT22;38322;53.108;6.308;2022-07-15T15:54:56;19.40;99.90
52397;DHT22;38322;53.108;6.308;2022-07-15T15:57:23;19.40;99.90
52397;DHT22;38322;53.108;6.308;2022-07-15T15:59:49;19.30;99.90
52397;DHT22;38322;53.108;6.308;2022-07-15T16:02:14;19.30;99.90
52397;DHT22;38322;53.108;6.308;2022-07-15T16:04:41;19.30;99.90
52397;DHT22;38322;53.108;6.308;2022-07-15T16:07:07;19.30;99.90
52397;DHT22;38322;53.108;6.308;2022-07-15T16:09:33;19.30;99.90
52397;DHT22;38322;53.108;6.308;2022-07-15T16:11:59;19.30;99.90
52397;DHT22;38322;53.108;6.308;2022-07-15T16:14:24;19.30;99.90
52397;DHT22;38322;53.108;6.308;2022-07-15T16:16:50;19.30;99.90
52397;DHT22;38322;53.108;6.308;2022-07-15T16:19:17;19.30;99.90
52397;DHT22;38322;53.108;6.308;2022-07-15T16:21:43;19.30;99.90
52397;DHT22;38322;53.108;6.308;2022-07-15T16:24:28;19.30;99.90
52397;DHT22;38322;53.108;6.308;2022-07-15T16:26:53;19.20;99.90
52397;DHT22;38322;53.108;6.308;2022-07-15T16:29:19;19.30;99.90
52397;DHT22;38322;53.108;6.308;2022-07-15T16:31:45;19.10;99.90
52397;DHT22;38322;53.108;6.308;2022-07-15T16:34:11;19.10;99.90
52397;DHT22;38322;53.108;6.308;2022-07-15T16:36:37;19.10;99.90
52397;DHT22;38322;53.108;6.308;2022-07-15T16:39:03;19.10;99.90
52397;DHT22;38322;53.108;6.308;2022-07-15T16:41:29;19.10;99.90
52397;DHT22;38322;53.108;6.308;2022-07-15T16:43:55;19.10;99.90
52397;DHT22;38322;53.108;6.308;2022-07-15T16:46:21;19.10;99.90
52397;DHT22;38322;53.108;6.308;2022-07-15T16:48:48;19.00;99.90
52397;DHT22;38322;53.108;6.308;2022-07-15T16:51:13;19.00;99.90
52397;DHT22;38322;53.108;6.308;2022-07-15T16:53:39;19.00;99.90
52397;DHT22;38322;53.108;6.308;2022-07-15T16:56:05;19.00;99.90
52397;DHT22;38322;53.108;6.308;2022-07-15T16:58:32;19.00;99.90
52397;DHT22;38322;53.108;6.308;2022-07-15T17:00:58;19.00;99.90
52397;DHT22;38322;53.108;6.308;2022-07-15T17:03:23;18.90;99.90
52397;DHT22;38322;53.108;6.308;2022-07-15T17:05:49;18.80;99.90
52397;DHT22;38322;53.108;6.308;2022-07-15T17:08:15;18.90;99.90
52397;DHT22;38322;53.108;6.308;2022-07-15T17:10:41;18.80;99.90
52397;DHT22;38322;53.108;6.308;2022-07-15T17:13:06;18.80;99.90
52397;DHT22;38322;53.108;6.308;2022-07-15T17:15:32;18.70;99.90
52397;DHT22;38322;53.108;6.308;2022-07-15T17:17:58;18.70;99.90
52397;DHT22;38322;53.108;6.308;2022-07-15T17:20:24;18.70;99.90
52397;DHT22;38322;53.108;6.308;2022-07-15T17:22:50;18.60;99.90
52397;DHT22;38322;53.108;6.308;2022-07-15T17:25:16;18.60;99.90
52397;DHT22;38322;53.108;6.308;2022-07-15T17:27:42;18.50;99.90
52397;DHT22;38322;53.108;6.308;2022-07-15T17:30:08;18.60;99.90
52397;DHT22;38322;53.108;6.308;2022-07-15T17:32:34;18.70;99.90
52397;DHT22;38322;53.108;6.308;2022-07-15T17:35:00;18.70;99.90
52397;DHT22;38322;53.108;6.308;2022-07-15T17:37:26;18.70;99.90
52397;DHT22;38322;53.108;6.308;2022-07-15T17:39:52;18.80;99.90
52397;DHT22;38322;53.108;6.308;2022-07-15T17:42:18;18.70;99.90
52397;DHT22;38322;53.108;6.308;2022-07-15T17:44:43;18.60;99.90
52397;DHT22;38322;53.108;6.308;2022-07-15T17:47:09;18.60;99.90
52397;DHT22;38322;53.108;6.308;2022-07-15T17:49:35;18.60;99.90
52397;DHT22;38322;53.108;6.308;2022-07-15T17:52:01;18.50;99.90
52397;DHT22;38322;53.108;6.308;2022-07-15T17:54:28;18.50;99.90
52397;DHT22;38322;53.108;6.308;2022-07-15T17:56:54;18.40;99.90
52397;DHT22;38322;53.108;6.308;2022-07-15T17:59:21;18.50;99.90
52397;DHT22;38322;53.108;6.308;2022-07-15T18:01:47;18.40;99.90
52397;DHT22;38322;53.108;6.308;2022-07-15T18:04:13;18.40;99.90
52397;DHT22;38322;53.108;6.308;2022-07-15T18:06:39;18.40;99.90
52397;DHT22;38322;53.108;6.308;2022-07-15T18:09:05;18.30;99.90
52397;DHT22;38322;53.108;6.308;2022-07-15T18:11:31;18.20;99.90
52397;DHT22;38322;53.108;6.308;2022-07-15T18:13:57;18.20;99.90
52397;DHT22;38322;53.108;6.308;2022-07-15T18:16:23;18.10;99.90
52397;DHT22;38322;53.108;6.308;2022-07-15T18:18:48;18.10;99.90
52397;DHT22;38322;53.108;6.308;2022-07-15T18:21:14;18.10;99.90
52397;DHT22;38322;53.108;6.308;2022-07-15T18:23:40;18.10;99.90
52397;DHT22;38322;53.108;6.308;2022-07-15T18:26:06;18.00;99.90
52397;DHT22;38322;53.108;6.308;2022-07-15T18:28:32;18.00;99.90
52397;DHT22;38322;53.108;6.308;2022-07-15T18:30:58;17.90;99.90
52397;DHT22;38322;53.108;6.308;2022-07-15T18:33:23;17.90;99.90
52397;DHT22;38322;53.108;6.308;2022-07-15T18:35:49;17.90;99.90
52397;DHT22;38322;53.108;6.308;2022-07-15T18:38:15;17.90;99.90
52397;DHT22;38322;53.108;6.308;2022-07-15T18:40:58;17.80;99.90
52397;DHT22;38322;53.108;6.308;2022-07-15T18:43:24;17.80;99.90
52397;DHT22;38322;53.108;6.308;2022-07-15T18:45:50;17.80;99.90
52397;DHT22;38322;53.108;6.308;2022-07-15T18:48:18;17.70;99.90
52397;DHT22;38322;53.108;6.308;2022-07-15T18:50:44;17.70;99.90
52397;DHT22;38322;53.108;6.308;2022-07-15T18:53:10;17.70;99.90
52397;DHT22;38322;53.108;6.308;2022-07-15T18:55:35;17.70;99.90
52397;DHT22;38322;53.108;6.308;2022-07-15T18:58:01;17.70;99.90
52397;DHT22;38322;53.108;6.308;2022-07-15T19:00:27;17.60;99.90
52397;DHT22;38322;53.108;6.308;2022-07-15T19:02:53;17.60;99.90
52397;DHT22;38322;53.108;6.308;2022-07-15T19:05:18;17.60;99.90
52397;DHT22;38322;53.108;6.308;2022-07-15T19:07:44;17.60;99.90
52397;DHT22;38322;53.108;6.308;2022-07-15T19:10:10;17.50;99.90
52397;DHT22;38322;53.108;6.308;2022-07-15T19:12:36;17.50;99.90
52397;DHT22;38322;53.108;6.308;2022-07-15T19:15:02;17.50;99.90
52397;DHT22;38322;53.108;6.308;2022-07-15T19:17:27;17.50;99.90
52397;DHT22;38322;53.108;6.308;2022-07-15T19:19:53;17.40;99.90
52397;DHT22;38322;53.108;6.308;2022-07-15T19:22:19;17.40;99.90
52397;DHT22;38322;53.108;6.308;2022-07-15T19:24:45;17.40;99.90
52397;DHT22;38322;53.108;6.308;2022-07-15T19:27:10;17.30;99.90
52397;DHT22;38322;53.108;6.308;2022-07-15T19:29:36;17.30;99.90
52397;DHT22;38322;53.108;6.308;2022-07-15T19:32:02;17.30;99.90
52397;DHT22;38322;53.108;6.308;2022-07-15T19:34:28;17.20;99.90
52397;DHT22;38322;53.108;6.308;2022-07-15T19:36:54;17.20;99.90
52397;DHT22;38322;53.108;6.308;2022-07-15T19:39:20;17.20;99.90
52397;DHT22;38322;53.108;6.308;2022-07-15T19:41:46;17.20;99.90
52397;DHT22;38322;53.108;6.308;2022-07-15T19:44:14;17.20;99.90
52397;DHT22;38322;53.108;6.308;2022-07-15T19:46:40;17.20;99.90
52397;DHT22;38322;53.108;6.308;2022-07-15T19:49:06;17.10;99.90
52397;DHT22;38322;53.108;6.308;2022-07-15T19:51:32;17.10;99.90
52397;DHT22;38322;53.108;6.308;2022-07-15T19:53:58;16.90;99.90
52397;DHT22;38322;53.108;6.308;2022-07-15T19:56:23;16.90;99.90
52397;DHT22;38322;53.108;6.308;2022-07-15T19:58:49;16.80;99.90
